Allisonia, Virginia
Current Conditions -  °F | °C
As of 4:35 PM on Saturday 25 Oct 2014 (Local Time) from KPSK Reporting Station
Scattered Clouds Scattered Clouds  
Wind Chill: 69°   Ceiling: Unl
Heat Index: 69°   Visibility: 10mi
Dew Point: 41°   Wind: 8mph
Humidity: 36%   Direction: 280°W
Pressure: 29.96"   Gusts: NA
Location:  36.9752°N, 80.6434°W
Report Text: KPSK 252035Z AUTO 28007KT 10SM SCT050 21/05 A2996 RMK AO2 T02070050
Loading
Personal Weather Stations






























Interactive Weather Map
Tropical Storm Tracking
New forecast layout! Learn more

10-Day Weather Forecast

Advertisements
Track Severe Weather on mobile